sensor_id;sensor_type;location;lat;lon;timestamp;P1;P2;P0
60374;PMS5003;70244;48.792;9.172;2024-02-21T05:17:19;3;3;
60374;PMS5003;70244;48.792;9.172;2024-02-21T05:19:49;3;2;
60374;PMS5003;70244;48.792;9.172;2024-02-21T05:21:14;3;3;
60374;PMS5003;70244;48.792;9.172;2024-02-21T05:23:44;2;2;
60374;PMS5003;70244;48.792;9.172;2024-02-21T05:26:19;3;3;
60374;PMS5003;70244;48.792;9.172;2024-02-21T05:28:45;3;3;
60374;PMS5003;70244;48.792;9.172;2024-02-21T05:31:17;1;1;
60374;PMS5003;70244;48.792;9.172;2024-02-21T05:33:47;2;2;
60374;PMS5003;70244;48.792;9.172;2024-02-21T05:36:17;2;2;
60374;PMS5003;70244;48.792;9.172;2024-02-21T05:38:48;2;2;
60374;PMS5003;70244;48.792;9.172;2024-02-21T05:41:19;1;1;
60374;PMS5003;70244;48.792;9.172;2024-02-21T05:43:49;4;4;
60374;PMS5003;70244;48.792;9.172;2024-02-21T05:46:20;3;3;
60374;PMS5003;70244;48.792;9.172;2024-02-21T05:48:50;2;2;
60374;PMS5003;70244;48.792;9.172;2024-02-21T05:51:21;1;0;
60374;PMS5003;70244;48.792;9.172;2024-02-21T05:53:52;3;2;
60374;PMS5003;70244;48.792;9.172;2024-02-21T05:56:23;3;2;
60374;PMS5003;70244;48.792;9.172;2024-02-21T05:58:53;3;3;
60374;PMS5003;70244;48.792;9.172;2024-02-21T06:01:24;3;3;
60374;PMS5003;70244;48.792;9.172;2024-02-21T06:03:55;3;3;
60374;PMS5003;70244;48.792;9.172;2024-02-21T06:06:25;3;3;
60374;PMS5003;70244;48.792;9.172;2024-02-21T06:08:56;6;6;
60374;PMS5003;70244;48.792;9.172;2024-02-21T06:11:27;2;2;
60374;PMS5003;70244;48.792;9.172;2024-02-21T06:13:57;3;3;
60374;PMS5003;70244;48.792;9.172;2024-02-21T06:16:28;1;1;
60374;PMS5003;70244;48.792;9.172;2024-02-21T06:18:58;3;3;
60374;PMS5003;70244;48.792;9.172;2024-02-21T06:21:29;4;3;
60374;PMS5003;70244;48.792;9.172;2024-02-21T06:24:00;3;3;
60374;PMS5003;70244;48.792;9.172;2024-02-21T06:26:30;4;3;
60374;PMS5003;70244;48.792;9.172;2024-02-21T06:29:01;4;2;
60374;PMS5003;70244;48.792;9.172;2024-02-21T06:31:32;2;2;
60374;PMS5003;70244;48.792;9.172;2024-02-21T06:34:02;2;2;
60374;PMS5003;70244;48.792;9.172;2024-02-21T06:36:33;4;2;
60374;PMS5003;70244;48.792;9.172;2024-02-21T06:39:04;3;2;
60374;PMS5003;70244;48.792;9.172;2024-02-21T06:41:34;4;4;
60374;PMS5003;70244;48.792;9.172;2024-02-21T06:44:05;4;2;
60374;PMS5003;70244;48.792;9.172;2024-02-21T06:46:36;3;3;
60374;PMS5003;70244;48.792;9.172;2024-02-21T06:49:06;4;3;
60374;PMS5003;70244;48.792;9.172;2024-02-21T06:51:37;3;3;
60374;PMS5003;70244;48.792;9.172;2024-02-21T06:54:08;3;3;
60374;PMS5003;70244;48.792;9.172;2024-02-21T06:56:40;6;1;
60374;PMS5003;70244;48.792;9.172;2024-02-21T06:59:09;3;3;
60374;PMS5003;70244;48.792;9.172;2024-02-21T07:01:40;2;2;
60374;PMS5003;70244;48.792;9.172;2024-02-21T07:04:10;5;3;
60374;PMS5003;70244;48.792;9.172;2024-02-21T07:06:41;3;3;
60374;PMS5003;70244;48.792;9.172;2024-02-21T07:09:12;4;3;
60374;PMS5003;70244;48.792;9.172;2024-02-21T07:11:42;4;2;
60374;PMS5003;70244;48.792;9.172;2024-02-21T07:14:13;2;1;
60374;PMS5003;70244;48.792;9.172;2024-02-21T07:16:44;1;1;
60374;PMS5003;70244;48.792;9.172;2024-02-21T07:19:15;2;2;
60374;PMS5003;70244;48.792;9.172;2024-02-21T07:21:45;4;3;
60374;PMS5003;70244;48.792;9.172;2024-02-21T07:24:16;2;1;
60374;PMS5003;70244;48.792;9.172;2024-02-21T07:26:47;3;3;
60374;PMS5003;70244;48.792;9.172;2024-02-21T07:29:17;2;1;
60374;PMS5003;70244;48.792;9.172;2024-02-21T07:31:48;2;2;
60374;PMS5003;70244;48.792;9.172;2024-02-21T07:34:19;3;3;
60374;PMS5003;70244;48.792;9.172;2024-02-21T07:36:49;3;1;
60374;PMS5003;70244;48.792;9.172;2024-02-21T07:39:20;4;4;
60374;PMS5003;70244;48.792;9.172;2024-02-21T07:41:51;1;1;
60374;PMS5003;70244;48.792;9.172;2024-02-21T07:44:21;0;0;
60374;PMS5003;70244;48.792;9.172;2024-02-21T07:46:52;2;2;
60374;PMS5003;70244;48.792;9.172;2024-02-21T07:49:23;2;2;
60374;PMS5003;70244;48.792;9.172;2024-02-21T07:51:53;2;2;
60374;PMS5003;70244;48.792;9.172;2024-02-21T07:54:24;2;1;
60374;PMS5003;70244;48.792;9.172;2024-02-21T07:56:54;2;2;
60374;PMS5003;70244;48.792;9.172;2024-02-21T07:59:25;2;2;
60374;PMS5003;70244;48.792;9.172;2024-02-21T08:01:56;1;1;
60374;PMS5003;70244;48.792;9.172;2024-02-21T08:04:26;2;1;
60374;PMS5003;70244;48.792;9.172;2024-02-21T08:06:57;2;2;
60374;PMS5003;70244;48.792;9.172;2024-02-21T08:09:27;6;2;
60374;PMS5003;70244;48.792;9.172;2024-02-21T08:11:58;3;3;
60374;PMS5003;70244;48.792;9.172;2024-02-21T08:14:29;3;3;
60374;PMS5003;70244;48.792;9.172;2024-02-21T08:16:59;3;3;
60374;PMS5003;70244;48.792;9.172;2024-02-21T08:19:30;5;2;
60374;PMS5003;70244;48.792;9.172;2024-02-21T08:22:01;3;3;
60374;PMS5003;70244;48.792;9.172;2024-02-21T08:24:32;4;4;
60374;PMS5003;70244;48.792;9.172;2024-02-21T08:27:02;6;5;
60374;PMS5003;70244;48.792;9.172;2024-02-21T08:29:33;4;4;
60374;PMS5003;70244;48.792;9.172;2024-02-21T08:32:04;3;3;
60374;PMS5003;70244;48.792;9.172;2024-02-21T08:34:34;4;2;
60374;PMS5003;70244;48.792;9.172;2024-02-21T08:37:05;5;4;
60374;PMS5003;70244;48.792;9.172;2024-02-21T08:39:36;4;3;
60374;PMS5003;70244;48.792;9.172;2024-02-21T08:42:06;5;4;
60374;PMS5003;70244;48.792;9.172;2024-02-21T08:44:37;3;3;
60374;PMS5003;70244;48.792;9.172;2024-02-21T08:47:07;9;5;
60374;PMS5003;70244;48.792;9.172;2024-02-21T08:49:38;1;1;
60374;PMS5003;70244;48.792;9.172;2024-02-21T08:52:09;3;3;
60374;PMS5003;70244;48.792;9.172;2024-02-21T08:54:40;2;2;
60374;PMS5003;70244;48.792;9.172;2024-02-21T08:57:10;3;3;
60374;PMS5003;70244;48.792;9.172;2024-02-21T08:59:41;2;2;
60374;PMS5003;70244;48.792;9.172;2024-02-21T09:02:12;4;3;
60374;PMS5003;70244;48.792;9.172;2024-02-21T09:04:42;2;2;
60374;PMS5003;70244;48.792;9.172;2024-02-21T09:07:13;2;2;
60374;PMS5003;70244;48.792;9.172;2024-02-21T09:09:44;3;3;
60374;PMS5003;70244;48.792;9.172;2024-02-21T09:12:15;1;1;
60374;PMS5003;70244;48.792;9.172;2024-02-21T09:14:45;3;3;
60374;PMS5003;70244;48.792;9.172;2024-02-21T09:17:16;5;3;
60374;PMS5003;70244;48.792;9.172;2024-02-21T09:19:47;2;2;
60374;PMS5003;70244;48.792;9.172;2024-02-21T09:22:17;5;3;
60374;PMS5003;70244;48.792;9.172;2024-02-21T09:24:48;3;3;
60374;PMS5003;70244;48.792;9.172;2024-02-21T09:27:19;2;2;
60374;PMS5003;70244;48.792;9.172;2024-02-21T09:29:49;4;4;
60374;PMS5003;70244;48.792;9.172;2024-02-21T09:32:20;2;2;
60374;PMS5003;70244;48.792;9.172;2024-02-21T09:34:50;2;2;
60374;PMS5003;70244;48.792;9.172;2024-02-21T09:37:20;3;2;
60374;PMS5003;70244;48.792;9.172;2024-02-21T09:39:51;2;2;
60374;PMS5003;70244;48.792;9.172;2024-02-21T09:42:22;2;1;
60374;PMS5003;70244;48.792;9.172;2024-02-21T09:44:53;3;3;
60374;PMS5003;70244;48.792;9.172;2024-02-21T09:47:24;3;3;
60374;PMS5003;70244;48.792;9.172;2024-02-21T09:49:54;4;2;
60374;PMS5003;70244;48.792;9.172;2024-02-21T09:52:25;2;2;
60374;PMS5003;70244;48.792;9.172;2024-02-21T09:54:55;3;3;
60374;PMS5003;70244;48.792;9.172;2024-02-21T09:57:26;1;1;
60374;PMS5003;70244;48.792;9.172;2024-02-21T09:59:57;3;3;
60374;PMS5003;70244;48.792;9.172;2024-02-21T10:02:27;3;2;
60374;PMS5003;70244;48.792;9.172;2024-02-21T10:04:58;3;3;
60374;PMS5003;70244;48.792;9.172;2024-02-21T10:07:29;1;1;
60374;PMS5003;70244;48.792;9.172;2024-02-21T10:10:01;4;3;
60374;PMS5003;70244;48.792;9.172;2024-02-21T10:12:30;3;2;
60374;PMS5003;70244;48.792;9.172;2024-02-21T10:15:01;1;1;
60374;PMS5003;70244;48.792;9.172;2024-02-21T10:17:32;1;1;
60374;PMS5003;70244;48.792;9.172;2024-02-21T10:22:33;2;2;
60374;PMS5003;70244;48.792;9.172;2024-02-21T10:25:06;2;2;
60374;PMS5003;70244;48.792;9.172;2024-02-21T10:27:34;4;4;
60374;PMS5003;70244;48.792;9.172;2024-02-21T10:30:06;1;1;
60374;PMS5003;70244;48.792;9.172;2024-02-21T10:32:35;5;2;
60374;PMS5003;70244;48.792;9.172;2024-02-21T10:35:06;4;4;
60374;PMS5003;70244;48.792;9.172;2024-02-21T10:37:37;3;2;
60374;PMS5003;70244;48.792;9.172;2024-02-21T10:40:08;7;3;
60374;PMS5003;70244;48.792;9.172;2024-02-21T10:42:38;4;2;
60374;PMS5003;70244;48.792;9.172;2024-02-21T10:45:09;3;1;
60374;PMS5003;70244;48.792;9.172;2024-02-21T10:47:39;2;2;
60374;PMS5003;70244;48.792;9.172;2024-02-21T10:50:10;2;2;
60374;PMS5003;70244;48.792;9.172;2024-02-21T10:52:42;3;3;
60374;PMS5003;70244;48.792;9.172;2024-02-21T10:55:13;4;3;
60374;PMS5003;70244;48.792;9.172;2024-02-21T10:57:42;5;5;
60374;PMS5003;70244;48.792;9.172;2024-02-21T11:00:13;2;0;
60374;PMS5003;70244;48.792;9.172;2024-02-21T11:02:43;2;2;
60374;PMS5003;70244;48.792;9.172;2024-02-21T11:05:14;1;1;
60374;PMS5003;70244;48.792;9.172;2024-02-21T11:07:44;2;2;
60374;PMS5003;70244;48.792;9.172;2024-02-21T11:12:46;6;6;
60374;PMS5003;70244;48.792;9.172;2024-02-21T11:15:16;7;5;
60374;PMS5003;70244;48.792;9.172;2024-02-21T11:20:16;11;11;
60374;PMS5003;70244;48.792;9.172;2024-02-21T11:22:47;9;7;
60374;PMS5003;70244;48.792;9.172;2024-02-21T11:25:21;9;6;
60374;PMS5003;70244;48.792;9.172;2024-02-21T11:27:48;5;5;
60374;PMS5003;70244;48.792;9.172;2024-02-21T11:30:18;8;6;
60374;PMS5003;70244;48.792;9.172;2024-02-21T11:32:49;4;4;
60374;PMS5003;70244;48.792;9.172;2024-02-21T11:35:19;3;3;
60374;PMS5003;70244;48.792;9.172;2024-02-21T11:37:50;4;4;
60374;PMS5003;70244;48.792;9.172;2024-02-21T11:40:20;8;7;
60374;PMS5003;70244;48.792;9.172;2024-02-21T11:42:51;9;8;
60374;PMS5003;70244;48.792;9.172;2024-02-21T11:45:21;4;4;
60374;PMS5003;70244;48.792;9.172;2024-02-21T11:47:57;4;4;
60374;PMS5003;70244;48.792;9.172;2024-02-21T11:50:23;4;4;
60374;PMS5003;70244;48.792;9.172;2024-02-21T11:52:54;4;4;
60374;PMS5003;70244;48.792;9.172;2024-02-21T11:55:23;7;4;
60374;PMS5003;70244;48.792;9.172;2024-02-21T11:57:54;5;5;
60374;PMS5003;70244;48.792;9.172;2024-02-21T12:00:25;3;3;
60374;PMS5003;70244;48.792;9.172;2024-02-21T12:02:55;5;5;
60374;PMS5003;70244;48.792;9.172;2024-02-21T12:05:26;4;3;
60374;PMS5003;70244;48.792;9.172;2024-02-21T12:07:57;6;4;
60374;PMS5003;70244;48.792;9.172;2024-02-21T12:10:27;3;3;
60374;PMS5003;70244;48.792;9.172;2024-02-21T12:15:29;2;2;
60374;PMS5003;70244;48.792;9.172;2024-02-21T12:17:59;3;3;
60374;PMS5003;70244;48.792;9.172;2024-02-21T12:20:30;4;4;
60374;PMS5003;70244;48.792;9.172;2024-02-21T12:23:00;3;3;
60374;PMS5003;70244;48.792;9.172;2024-02-21T12:25:31;4;4;
60374;PMS5003;70244;48.792;9.172;2024-02-21T12:28:01;4;3;
60374;PMS5003;70244;48.792;9.172;2024-02-21T12:30:32;3;3;
60374;PMS5003;70244;48.792;9.172;2024-02-21T12:33:03;3;3;
60374;PMS5003;70244;48.792;9.172;2024-02-21T12:35:33;1;1;
60374;PMS5003;70244;48.792;9.172;2024-02-21T12:38:04;2;2;
60374;PMS5003;70244;48.792;9.172;2024-02-21T12:40:35;1;1;
60374;PMS5003;70244;48.792;9.172;2024-02-21T12:43:05;3;3;
60374;PMS5003;70244;48.792;9.172;2024-02-21T12:45:36;4;3;
60374;PMS5003;70244;48.792;9.172;2024-02-21T12:48:07;6;4;
60374;PMS5003;70244;48.792;9.172;2024-02-21T12:50:37;5;3;
60374;PMS5003;70244;48.792;9.172;2024-02-21T12:53:08;1;1;
60374;PMS5003;70244;48.792;9.172;2024-02-21T12:55:39;3;3;
60374;PMS5003;70244;48.792;9.172;2024-02-21T12:58:09;2;2;
60374;PMS5003;70244;48.792;9.172;2024-02-21T13:00:40;2;2;
60374;PMS5003;70244;48.792;9.172;2024-02-21T13:03:11;2;2;
60374;PMS5003;70244;48.792;9.172;2024-02-21T13:05:41;1;1;
60374;PMS5003;70244;48.792;9.172;2024-02-21T13:08:12;3;3;
60374;PMS5003;70244;48.792;9.172;2024-02-21T13:10:43;2;2;
60374;PMS5003;70244;48.792;9.172;2024-02-21T13:13:13;2;2;
60374;PMS5003;70244;48.792;9.172;2024-02-21T13:15:44;1;1;
60374;PMS5003;70244;48.792;9.172;2024-02-21T13:18:14;1;1;
60374;PMS5003;70244;48.792;9.172;2024-02-21T13:20:45;2;2;
60374;PMS5003;70244;48.792;9.172;2024-02-21T13:23:16;3;2;
60374;PMS5003;70244;48.792;9.172;2024-02-21T13:25:47;1;1;
60374;PMS5003;70244;48.792;9.172;2024-02-21T13:28:17;3;3;
60374;PMS5003;70244;48.792;9.172;2024-02-21T13:30:48;2;2;
60374;PMS5003;70244;48.792;9.172;2024-02-21T13:33:18;1;1;
60374;PMS5003;70244;48.792;9.172;2024-02-21T13:35:49;2;2;
60374;PMS5003;70244;48.792;9.172;2024-02-21T13:38:20;1;1;
60374;PMS5003;70244;48.792;9.172;2024-02-21T13:40:50;0;0;
60374;PMS5003;70244;48.792;9.172;2024-02-21T13:43:21;2;0;
60374;PMS5003;70244;48.792;9.172;2024-02-21T13:45:55;1;1;
60374;PMS5003;70244;48.792;9.172;2024-02-21T13:48:22;2;1;
60374;PMS5003;70244;48.792;9.172;2024-02-21T13:50:53;2;2;
60374;PMS5003;70244;48.792;9.172;2024-02-21T13:53:24;3;2;
60374;PMS5003;70244;48.792;9.172;2024-02-21T13:55:54;2;1;
60374;PMS5003;70244;48.792;9.172;2024-02-21T13:58:25;0;0;
60374;PMS5003;70244;48.792;9.172;2024-02-21T14:00:56;1;1;
60374;PMS5003;70244;48.792;9.172;2024-02-21T14:03:27;2;2;
60374;PMS5003;70244;48.792;9.172;2024-02-21T14:05:57;1;1;
60374;PMS5003;70244;48.792;9.172;2024-02-21T14:08:28;2;2;
60374;PMS5003;70244;48.792;9.172;2024-02-21T14:10:58;0;0;
60374;PMS5003;70244;48.792;9.172;2024-02-21T14:13:29;1;1;
60374;PMS5003;70244;48.792;9.172;2024-02-21T14:15:59;11;11;
60374;PMS5003;70244;48.792;9.172;2024-02-21T14:18:30;2;2;
60374;PMS5003;70244;48.792;9.172;2024-02-21T14:21:01;4;4;
60374;PMS5003;70244;48.792;9.172;2024-02-21T14:23:31;6;4;
60374;PMS5003;70244;48.792;9.172;2024-02-21T14:26:01;6;6;
60374;PMS5003;70244;48.792;9.172;2024-02-21T14:28:32;6;3;
60374;PMS5003;70244;48.792;9.172;2024-02-21T14:31:02;8;6;
60374;PMS5003;70244;48.792;9.172;2024-02-21T14:33:33;4;4;
60374;PMS5003;70244;48.792;9.172;2024-02-21T14:36:04;5;5;
60374;PMS5003;70244;48.792;9.172;2024-02-21T14:38:34;4;3;
60374;PMS5003;70244;48.792;9.172;2024-02-21T14:41:05;4;4;
60374;PMS5003;70244;48.792;9.172;2024-02-21T14:43:36;2;2;
60374;PMS5003;70244;48.792;9.172;2024-02-21T14:46:06;4;4;
60374;PMS5003;70244;48.792;9.172;2024-02-21T14:48:37;4;4;
60374;PMS5003;70244;48.792;9.172;2024-02-21T14:51:08;4;4;
60374;PMS5003;70244;48.792;9.172;2024-02-21T14:53:38;5;3;
60374;PMS5003;70244;48.792;9.172;2024-02-21T14:56:12;3;1;
60374;PMS5003;70244;48.792;9.172;2024-02-21T14:58:40;8;3;
60374;PMS5003;70244;48.792;9.172;2024-02-21T15:01:11;3;1;
60374;PMS5003;70244;48.792;9.172;2024-02-21T15:03:41;1;1;
60374;PMS5003;70244;48.792;9.172;2024-02-21T15:06:12;3;3;
60374;PMS5003;70244;48.792;9.172;2024-02-21T15:08:42;5;2;
60374;PMS5003;70244;48.792;9.172;2024-02-21T15:11:13;3;2;
60374;PMS5003;70244;48.792;9.172;2024-02-21T15:13:44;2;2;
60374;PMS5003;70244;48.792;9.172;2024-02-21T15:16:14;1;1;
60374;PMS5003;70244;48.792;9.172;2024-02-21T15:18:45;4;3;
60374;PMS5003;70244;48.792;9.172;2024-02-21T15:21:15;6;5;
60374;PMS5003;70244;48.792;9.172;2024-02-21T15:23:45;3;3;
60374;PMS5003;70244;48.792;9.172;2024-02-21T15:26:16;3;3;
60374;PMS5003;70244;48.792;9.172;2024-02-21T15:28:47;3;2;
60374;PMS5003;70244;48.792;9.172;2024-02-21T15:31:21;3;3;
60374;PMS5003;70244;48.792;9.172;2024-02-21T15:33:48;2;2;
60374;PMS5003;70244;48.792;9.172;2024-02-21T15:36:19;1;1;
60374;PMS5003;70244;48.792;9.172;2024-02-21T15:38:49;1;1;
60374;PMS5003;70244;48.792;9.172;2024-02-21T15:41:20;3;3;
60374;PMS5003;70244;48.792;9.172;2024-02-21T15:43:51;2;2;
60374;PMS5003;70244;48.792;9.172;2024-02-21T15:46:21;3;2;
60374;PMS5003;70244;48.792;9.172;2024-02-21T15:48:52;4;4;
60374;PMS5003;70244;48.792;9.172;2024-02-21T15:51:23;3;3;
60374;PMS5003;70244;48.792;9.172;2024-02-21T15:53:53;3;3;
60374;PMS5003;70244;48.792;9.172;2024-02-21T15:56:24;4;2;
60374;PMS5003;70244;48.792;9.172;2024-02-21T15:58:54;1;1;
60374;PMS5003;70244;48.792;9.172;2024-02-21T16:01:25;3;3;
60374;PMS5003;70244;48.792;9.172;2024-02-21T16:03:56;4;3;
60374;PMS5003;70244;48.792;9.172;2024-02-21T16:06:26;3;3;
60374;PMS5003;70244;48.792;9.172;2024-02-21T16:08:57;3;1;
60374;PMS5003;70244;48.792;9.172;2024-02-21T16:11:28;1;1;
60374;PMS5003;70244;48.792;9.172;2024-02-21T16:13:59;3;2;
60374;PMS5003;70244;48.792;9.172;2024-02-21T16:16:29;3;3;
60374;PMS5003;70244;48.792;9.172;2024-02-21T16:19:00;2;2;
60374;PMS5003;70244;48.792;9.172;2024-02-21T16:21:31;4;2;
60374;PMS5003;70244;48.792;9.172;2024-02-21T16:24:01;1;1;
60374;PMS5003;70244;48.792;9.172;2024-02-21T16:26:33;3;1;
60374;PMS5003;70244;48.792;9.172;2024-02-21T16:29:02;3;3;
60374;PMS5003;70244;48.792;9.172;2024-02-21T16:31:33;3;2;
60374;PMS5003;70244;48.792;9.172;2024-02-21T16:34:03;280;268;
60374;PMS5003;70244;48.792;9.172;2024-02-21T16:36:34;245;238;
60374;PMS5003;70244;48.792;9.172;2024-02-21T16:39:04;114;107;
60374;PMS5003;70244;48.792;9.172;2024-02-21T16:41:34;63;61;
60374;PMS5003;70244;48.792;9.172;2024-02-21T16:44:05;42;40;
60374;PMS5003;70244;48.792;9.172;2024-02-21T16:46:35;26;23;
60374;PMS5003;70244;48.792;9.172;2024-02-21T16:49:06;21;21;
60374;PMS5003;70244;48.792;9.172;2024-02-21T16:51:37;18;17;
60374;PMS5003;70244;48.792;9.172;2024-02-21T16:54:07;18;15;
60374;PMS5003;70244;48.792;9.172;2024-02-21T16:56:38;20;18;
60374;PMS5003;70244;48.792;9.172;2024-02-21T16:59:08;17;17;
60374;PMS5003;70244;48.792;9.172;2024-02-21T17:01:39;17;15;
60374;PMS5003;70244;48.792;9.172;2024-02-21T17:04:09;15;14;
60374;PMS5003;70244;48.792;9.172;2024-02-21T17:06:39;14;13;
60374;PMS5003;70244;48.792;9.172;2024-02-21T17:09:10;15;13;
60374;PMS5003;70244;48.792;9.172;2024-02-21T17:11:40;14;14;
60374;PMS5003;70244;48.792;9.172;2024-02-21T17:14:10;10;10;
60374;PMS5003;70244;48.792;9.172;2024-02-21T17:16:41;10;10;
60374;PMS5003;70244;48.792;9.172;2024-02-21T17:19:11;12;11;
60374;PMS5003;70244;48.792;9.172;2024-02-21T17:21:42;12;9;
60374;PMS5003;70244;48.792;9.172;2024-02-21T17:24:13;10;7;
60374;PMS5003;70244;48.792;9.172;2024-02-21T17:26:43;9;9;
60374;PMS5003;70244;48.792;9.172;2024-02-21T17:29:14;12;10;
60374;PMS5003;70244;48.792;9.172;2024-02-21T17:31:44;5;5;
60374;PMS5003;70244;48.792;9.172;2024-02-21T17:34:15;10;7;
60374;PMS5003;70244;48.792;9.172;2024-02-21T17:36:46;9;9;
60374;PMS5003;70244;48.792;9.172;2024-02-21T17:39:16;7;7;
60374;PMS5003;70244;48.792;9.172;2024-02-21T17:41:47;7;7;
60374;PMS5003;70244;48.792;9.172;2024-02-21T17:44:17;8;7;
60374;PMS5003;70244;48.792;9.172;2024-02-21T17:46:48;4;4;
60374;PMS5003;70244;48.792;9.172;2024-02-21T17:49:18;8;8;
60374;PMS5003;70244;48.792;9.172;2024-02-21T17:51:49;5;5;
60374;PMS5003;70244;48.792;9.172;2024-02-21T17:54:20;7;6;
60374;PMS5003;70244;48.792;9.172;2024-02-21T17:56:50;7;7;
60374;PMS5003;70244;48.792;9.172;2024-02-21T17:59:21;6;5;
60374;PMS5003;70244;48.792;9.172;2024-02-21T18:01:52;3;3;
60374;PMS5003;70244;48.792;9.172;2024-02-21T18:04:22;6;5;
60374;PMS5003;70244;48.792;9.172;2024-02-21T18:06:53;6;6;
60374;PMS5003;70244;48.792;9.172;2024-02-21T18:09:23;6;5;
60374;PMS5003;70244;48.792;9.172;2024-02-21T18:11:54;4;4;
60374;PMS5003;70244;48.792;9.172;2024-02-21T18:14:25;4;4;
60374;PMS5003;70244;48.792;9.172;2024-02-21T18:16:55;13;11;
60374;PMS5003;70244;48.792;9.172;2024-02-21T18:19:26;9;6;
60374;PMS5003;70244;48.792;9.172;2024-02-21T18:21:57;9;8;
60374;PMS5003;70244;48.792;9.172;2024-02-21T18:24:28;7;5;
60374;PMS5003;70244;48.792;9.172;2024-02-21T18:26:58;5;5;
60374;PMS5003;70244;48.792;9.172;2024-02-21T18:29:29;8;7;
60374;PMS5003;70244;48.792;9.172;2024-02-21T18:31:59;5;4;
60374;PMS5003;70244;48.792;9.172;2024-02-21T18:34:30;4;4;
60374;PMS5003;70244;48.792;9.172;2024-02-21T18:37:01;7;6;
60374;PMS5003;70244;48.792;9.172;2024-02-21T18:39:31;5;5;
60374;PMS5003;70244;48.792;9.172;2024-02-21T18:42:02;7;5;
60374;PMS5003;70244;48.792;9.172;2024-02-21T18:44:32;3;3;
60374;PMS5003;70244;48.792;9.172;2024-02-21T18:47:03;4;4;
60374;PMS5003;70244;48.792;9.172;2024-02-21T18:49:33;6;4;
60374;PMS5003;70244;48.792;9.172;2024-02-21T18:52:04;4;4;
60374;PMS5003;70244;48.792;9.172;2024-02-21T18:54:38;3;3;
60374;PMS5003;70244;48.792;9.172;2024-02-21T18:57:05;4;4;
60374;PMS5003;70244;48.792;9.172;2024-02-21T18:59:35;9;7;
60374;PMS5003;70244;48.792;9.172;2024-02-21T19:02:06;5;4;
60374;PMS5003;70244;48.792;9.172;2024-02-21T19:04:36;4;4;
60374;PMS5003;70244;48.792;9.172;2024-02-21T19:07:07;5;5;
60374;PMS5003;70244;48.792;9.172;2024-02-21T19:09:37;4;4;
60374;PMS5003;70244;48.792;9.172;2024-02-21T19:12:08;4;4;
60374;PMS5003;70244;48.792;9.172;2024-02-21T19:14:38;8;6;
60374;PMS5003;70244;48.792;9.172;2024-02-21T19:17:09;4;4;
60374;PMS5003;70244;48.792;9.172;2024-02-21T19:19:40;6;6;
60374;PMS5003;70244;48.792;9.172;2024-02-21T19:22:10;4;4;
60374;PMS5003;70244;48.792;9.172;2024-02-21T19:24:41;3;3;
60374;PMS5003;70244;48.792;9.172;2024-02-21T19:27:12;6;4;
60374;PMS5003;70244;48.792;9.172;2024-02-21T19:29:42;5;4;
60374;PMS5003;70244;48.792;9.172;2024-02-21T19:32:13;6;5;
60374;PMS5003;70244;48.792;9.172;2024-02-21T19:34:43;4;3;
60374;PMS5003;70244;48.792;9.172;2024-02-21T19:37:14;3;2;
60374;PMS5003;70244;48.792;9.172;2024-02-21T19:39:44;4;4;
60374;PMS5003;70244;48.792;9.172;2024-02-21T19:42:15;4;3;
60374;PMS5003;70244;48.792;9.172;2024-02-21T19:44:46;4;2;
60374;PMS5003;70244;48.792;9.172;2024-02-21T19:47:16;5;4;
60374;PMS5003;70244;48.792;9.172;2024-02-21T19:49:47;2;2;
60374;PMS5003;70244;48.792;9.172;2024-02-21T19:52:17;2;2;
60374;PMS5003;70244;48.792;9.172;2024-02-21T19:54:48;4;3;
60374;PMS5003;70244;48.792;9.172;2024-02-21T19:57:18;3;2;
60374;PMS5003;70244;48.792;9.172;2024-02-21T19:59:49;6;3;
60374;PMS5003;70244;48.792;9.172;2024-02-21T20:02:19;4;4;
60374;PMS5003;70244;48.792;9.172;2024-02-21T20:04:50;3;2;
60374;PMS5003;70244;48.792;9.172;2024-02-21T20:07:21;2;2;
60374;PMS5003;70244;48.792;9.172;2024-02-21T20:09:51;5;5;
60374;PMS5003;70244;48.792;9.172;2024-02-21T20:12:22;5;5;
60374;PMS5003;70244;48.792;9.172;2024-02-21T20:14:52;4;4;
60374;PMS5003;70244;48.792;9.172;2024-02-21T20:17:23;3;2;
60374;PMS5003;70244;48.792;9.172;2024-02-21T20:19:54;5;4;
60374;PMS5003;70244;48.792;9.172;2024-02-21T20:22:24;2;2;
60374;PMS5003;70244;48.792;9.172;2024-02-21T20:24:55;3;3;
60374;PMS5003;70244;48.792;9.172;2024-02-21T20:27:26;3;2;
60374;PMS5003;70244;48.792;9.172;2024-02-21T20:29:56;3;3;
60374;PMS5003;70244;48.792;9.172;2024-02-21T20:32:27;3;3;
60374;PMS5003;70244;48.792;9.172;2024-02-21T20:34:58;3;2;
60374;PMS5003;70244;48.792;9.172;2024-02-21T20:37:28;1;1;
60374;PMS5003;70244;48.792;9.172;2024-02-21T20:39:59;1;1;
60374;PMS5003;70244;48.792;9.172;2024-02-21T20:42:30;4;3;
60374;PMS5003;70244;48.792;9.172;2024-02-21T20:45:00;3;2;
60374;PMS5003;70244;48.792;9.172;2024-02-21T20:47:31;2;2;
60374;PMS5003;70244;48.792;9.172;2024-02-21T20:50:01;4;3;
60374;PMS5003;70244;48.792;9.172;2024-02-21T20:52:32;1;1;
60374;PMS5003;70244;48.792;9.172;2024-02-21T20:55:03;3;3;
60374;PMS5003;70244;48.792;9.172;2024-02-21T20:57:33;7;2;
60374;PMS5003;70244;48.792;9.172;2024-02-21T21:00:05;3;2;
60374;PMS5003;70244;48.792;9.172;2024-02-21T21:02:35;3;3;
60374;PMS5003;70244;48.792;9.172;2024-02-21T21:05:05;4;4;
60374;PMS5003;70244;48.792;9.172;2024-02-21T21:07:36;5;4;
60374;PMS5003;70244;48.792;9.172;2024-02-21T21:10:06;2;2;
60374;PMS5003;70244;48.792;9.172;2024-02-21T21:12:37;3;3;
60374;PMS5003;70244;48.792;9.172;2024-02-21T21:15:08;3;3;
60374;PMS5003;70244;48.792;9.172;2024-02-21T21:17:38;2;2;
60374;PMS5003;70244;48.792;9.172;2024-02-21T21:20:09;4;3;
60374;PMS5003;70244;48.792;9.172;2024-02-21T21:22:39;3;3;
60374;PMS5003;70244;48.792;9.172;2024-02-21T21:25:10;3;3;
60374;PMS5003;70244;48.792;9.172;2024-02-21T21:27:41;2;2;
60374;PMS5003;70244;48.792;9.172;2024-02-21T21:30:12;1;1;
60374;PMS5003;70244;48.792;9.172;2024-02-21T21:32:42;1;0;
60374;PMS5003;70244;48.792;9.172;2024-02-21T21:35:13;3;3;
60374;PMS5003;70244;48.792;9.172;2024-02-21T21:37:43;2;2;
60374;PMS5003;70244;48.792;9.172;2024-02-21T21:40:14;3;3;
60374;PMS5003;70244;48.792;9.172;2024-02-21T21:42:45;3;3;
60374;PMS5003;70244;48.792;9.172;2024-02-21T21:45:16;2;2;
60374;PMS5003;70244;48.792;9.172;2024-02-21T21:47:46;3;1;
60374;PMS5003;70244;48.792;9.172;2024-02-21T21:50:17;1;0;
60374;PMS5003;70244;48.792;9.172;2024-02-21T21:52:47;1;1;
60374;PMS5003;70244;48.792;9.172;2024-02-21T21:55:18;5;4;
60374;PMS5003;70244;48.792;9.172;2024-02-21T21:57:49;1;1;
60374;PMS5003;70244;48.792;9.172;2024-02-21T22:00:19;3;3;
60374;PMS5003;70244;48.792;9.172;2024-02-21T22:02:50;0;0;
60374;PMS5003;70244;48.792;9.172;2024-02-21T22:05:21;1;1;
60374;PMS5003;70244;48.792;9.172;2024-02-21T22:07:51;1;1;
60374;PMS5003;70244;48.792;9.172;2024-02-21T22:10:22;2;2;
60374;PMS5003;70244;48.792;9.172;2024-02-21T22:12:53;2;1;
60374;PMS5003;70244;48.792;9.172;2024-02-21T22:15:23;2;2;
60374;PMS5003;70244;48.792;9.172;2024-02-21T22:17:54;0;0;
60374;PMS5003;70244;48.792;9.172;2024-02-21T22:20:25;2;1;
60374;PMS5003;70244;48.792;9.172;2024-02-21T22:22:55;3;3;
60374;PMS5003;70244;48.792;9.172;2024-02-21T22:25:26;3;2;
60374;PMS5003;70244;48.792;9.172;2024-02-21T22:27:57;1;1;
60374;PMS5003;70244;48.792;9.172;2024-02-21T22:30:27;2;2;
60374;PMS5003;70244;48.792;9.172;2024-02-21T22:32:58;3;2;
60374;PMS5003;70244;48.792;9.172;2024-02-21T22:35:29;2;2;